DLH5P EDDF-LEIB
Flight info
| Callsign | DLH5P |
|---|---|
| Flight time | 2h 6m |
| Altitude | 35000 |
| Route | ANEKI2L/18 ANEKI Y163 HERBI Y164 MOPAN DCT LUTIX/N0441F370 DCT BENOT DCT NEMOS DCT GEVEA DCT INCUS DCT BALSI DCT RETNO DCT TUPOX DCT MTG DCT DIVKO DCT VATIR DCT PIVUS DCT SULID DCT DIMIB DCT POS |
| Aircraft | A320/M-SDE2E3FGIJ1LORWXYZ/HB1 |
Departure
| Time | 2026-05-04 16:27 |
|---|---|
| Airport | Frankfurt Main Airport (EDDF) |
Arrival
| Time | 2026-05-04 18:33 |
|---|---|
| Airport | Ibiza Airport (LEIB) |
| Time | Latitude | Longitude | Altitude | Speed | Heading |
|---|---|---|---|---|---|
| 2026-05-04 15:45 | 50.04737 | 8.56736 | 356 ft | 0 kts | 114° |
| 2026-05-04 16:13 | 50.04752 | 8.56680 | 364 ft | 4 kts | 141° |
| 2026-05-04 16:14 | 50.04788 | 8.56678 | 361 ft | 0 kts | 205° |
| 2026-05-04 16:18 | 50.04664 | 8.56422 | 360 ft | 16 kts | 250° |
| 2026-05-04 16:18 | 50.04605 | 8.56177 | 358 ft | 28 kts | 250° |
| 2026-05-04 16:19 | 50.04262 | 8.55957 | 354 ft | 18 kts | 198° |
| 2026-05-04 16:19 | 50.04151 | 8.55571 | 359 ft | 22 kts | 249° |
| 2026-05-04 16:20 | 50.03987 | 8.54884 | 357 ft | 24 kts | 249° |
| 2026-05-04 16:20 | 50.03854 | 8.54355 | 349 ft | 28 kts | 237° |
| 2026-05-04 16:21 | 50.03670 | 8.53680 | 347 ft | 2 kts | 249° |
| 2026-05-04 16:22 | 50.03656 | 8.53626 | 343 ft | 7 kts | 248° |
| 2026-05-04 16:22 | 50.03566 | 8.53260 | 338 ft | 8 kts | 249° |
| 2026-05-04 16:23 | 50.03508 | 8.53017 | 334 ft | 10 kts | 249° |
| 2026-05-04 16:24 | 50.03386 | 8.52594 | 334 ft | 10 kts | 197° |
| 2026-05-04 16:25 | 50.03332 | 8.52594 | 333 ft | 2 kts | 179° |
| 2026-05-04 16:26 | 50.01567 | 8.52613 | 337 ft | 167 kts | 179° |
| 2026-05-04 16:27 | 49.99188 | 8.52687 | 1554 ft | 176 kts | 181° |
| 2026-05-04 16:28 | 49.94786 | 8.52969 | 2623 ft | 239 kts | 178° |
| 2026-05-04 16:28 | 49.89823 | 8.53337 | 5240 ft | 238 kts | 178° |
| 2026-05-04 16:29 | 49.83045 | 8.53796 | 8454 ft | 249 kts | 178° |
| 2026-05-04 16:30 | 49.77751 | 8.54155 | 10777 ft | 257 kts | 182° |
| 2026-05-04 16:31 | 49.73920 | 8.53706 | 11398 ft | 299 kts | 186° |
| 2026-05-04 16:31 | 49.67263 | 8.52693 | 13019 ft | 328 kts | 186° |
| 2026-05-04 16:32 | 49.60331 | 8.51778 | 14993 ft | 338 kts | 186° |
| 2026-05-04 16:33 | 49.55588 | 8.51168 | 16211 ft | 345 kts | 186° |
| 2026-05-04 16:33 | 49.50751 | 8.50538 | 17398 ft | 352 kts | 186° |
| 2026-05-04 16:34 | 49.45826 | 8.49890 | 18523 ft | 358 kts | 187° |
| 2026-05-04 16:34 | 49.43330 | 8.49556 | 19077 ft | 361 kts | 187° |
| 2026-05-04 16:35 | 49.35738 | 8.48554 | 20661 ft | 369 kts | 187° |
| 2026-05-04 16:35 | 49.27977 | 8.47554 | 22133 ft | 376 kts | 187° |
| 2026-05-04 16:36 | 49.25360 | 8.47216 | 22593 ft | 379 kts | 187° |
| 2026-05-04 16:36 | 49.20071 | 8.46534 | 23472 ft | 384 kts | 187° |
| 2026-05-04 16:37 | 49.15622 | 8.45959 | 24181 ft | 387 kts | 187° |
| 2026-05-04 16:37 | 49.12930 | 8.45613 | 24589 ft | 389 kts | 187° |
| 2026-05-04 16:37 | 49.07464 | 8.44896 | 25385 ft | 394 kts | 188° |
| 2026-05-04 16:38 | 49.02104 | 8.43260 | 26125 ft | 395 kts | 195° |
| 2026-05-04 16:39 | 48.94047 | 8.40441 | 27190 ft | 401 kts | 195° |
| 2026-05-04 16:39 | 48.88588 | 8.38546 | 27900 ft | 404 kts | 195° |
| 2026-05-04 16:40 | 48.83078 | 8.36646 | 28585 ft | 408 kts | 195° |
| 2026-05-04 16:40 | 48.77523 | 8.34734 | 29247 ft | 411 kts | 195° |
| 2026-05-04 16:41 | 48.71945 | 8.32717 | 29848 ft | 413 kts | 196° |
| 2026-05-04 16:41 | 48.63524 | 8.29605 | 30664 ft | 418 kts | 196° |
| 2026-05-04 16:42 | 48.55013 | 8.26516 | 31537 ft | 419 kts | 196° |
| 2026-05-04 16:43 | 48.49355 | 8.24464 | 32233 ft | 417 kts | 196° |
| 2026-05-04 16:43 | 48.43735 | 8.22415 | 32929 ft | 414 kts | 196° |
| 2026-05-04 16:43 | 48.40939 | 8.21391 | 33261 ft | 414 kts | 196° |
| 2026-05-04 16:44 | 48.29819 | 8.17337 | 34536 ft | 409 kts | 196° |
| 2026-05-04 16:45 | 48.24332 | 8.15106 | 34964 ft | 407 kts | 204° |
| 2026-05-04 16:46 | 48.11758 | 8.05931 | 35002 ft | 411 kts | 207° |
| 2026-05-04 16:47 | 48.06547 | 8.02081 | 35013 ft | 423 kts | 207° |
| 2026-05-04 16:47 | 48.01225 | 7.98163 | 35012 ft | 429 kts | 207° |
| 2026-05-04 16:48 | 47.90520 | 7.90328 | 35012 ft | 432 kts | 207° |
| 2026-05-04 16:49 | 47.79721 | 7.82443 | 35016 ft | 432 kts | 207° |
| 2026-05-04 16:50 | 47.68911 | 7.74588 | 35018 ft | 432 kts | 207° |
| 2026-05-04 16:51 | 47.60802 | 7.68746 | 35018 ft | 432 kts | 207° |
| 2026-05-04 16:52 | 47.50020 | 7.60980 | 35022 ft | 430 kts | 207° |
| 2026-05-04 16:53 | 47.41948 | 7.55178 | 35024 ft | 430 kts | 207° |
| 2026-05-04 16:54 | 47.31158 | 7.47467 | 35027 ft | 431 kts | 207° |
| 2026-05-04 16:55 | 47.15614 | 7.34683 | 35037 ft | 427 kts | 229° |
| 2026-05-04 16:56 | 47.04898 | 7.19616 | 35037 ft | 427 kts | 222° |
| 2026-05-04 16:57 | 46.98312 | 7.10794 | 35044 ft | 428 kts | 223° |
| 2026-05-04 16:58 | 46.89664 | 6.98942 | 35044 ft | 427 kts | 223° |
| 2026-05-04 17:00 | 46.76586 | 6.81272 | 35037 ft | 427 kts | 223° |
| 2026-05-04 17:01 | 46.65662 | 6.66615 | 35038 ft | 427 kts | 223° |
| 2026-05-04 17:02 | 46.56907 | 6.54909 | 35034 ft | 427 kts | 223° |
| 2026-05-04 17:03 | 46.50320 | 6.46170 | 35033 ft | 428 kts | 220° |
| 2026-05-04 17:03 | 46.47824 | 6.43828 | 35032 ft | 429 kts | 207° |
| 2026-05-04 17:03 | 46.42371 | 6.40281 | 35031 ft | 430 kts | 206° |
| 2026-05-04 17:04 | 46.31389 | 6.33322 | 35036 ft | 431 kts | 205° |
| 2026-05-04 17:05 | 46.20428 | 6.26370 | 35033 ft | 432 kts | 206° |
| 2026-05-04 17:06 | 46.12165 | 6.21147 | 35035 ft | 432 kts | 205° |
| 2026-05-04 17:07 | 46.04793 | 6.16489 | 35036 ft | 432 kts | 205° |
| 2026-05-04 17:07 | 45.98388 | 6.12458 | 35038 ft | 432 kts | 206° |
| 2026-05-04 17:08 | 45.90114 | 6.07274 | 35038 ft | 433 kts | 205° |
| 2026-05-04 17:09 | 45.84483 | 6.04203 | 35038 ft | 436 kts | 195° |
| 2026-05-04 17:09 | 45.78477 | 6.02822 | 35037 ft | 437 kts | 191° |
| 2026-05-04 17:10 | 45.63433 | 5.99525 | 35039 ft | 438 kts | 192° |
| 2026-05-04 17:11 | 45.57412 | 5.98197 | 35043 ft | 438 kts | 192° |
| 2026-05-04 17:12 | 45.48392 | 5.96230 | 35041 ft | 437 kts | 192° |
| 2026-05-04 17:13 | 45.33709 | 5.90883 | 35597 ft | 438 kts | 198° |
| 2026-05-04 17:14 | 45.24932 | 5.87556 | 36056 ft | 436 kts | 198° |
| 2026-05-04 17:14 | 45.21964 | 5.86440 | 36053 ft | 435 kts | 198° |
| 2026-05-04 17:15 | 45.13250 | 5.83145 | 36025 ft | 433 kts | 199° |
| 2026-05-04 17:16 | 45.01600 | 5.78758 | 36028 ft | 433 kts | 199° |
| 2026-05-04 17:17 | 44.89973 | 5.74381 | 36023 ft | 432 kts | 199° |
| 2026-05-04 17:18 | 44.78338 | 5.70014 | 36023 ft | 433 kts | 199° |
| 2026-05-04 17:19 | 44.66703 | 5.65695 | 36019 ft | 432 kts | 199° |
| 2026-05-04 17:19 | 44.61006 | 5.63591 | 36023 ft | 409 kts | 200° |
| 2026-05-04 17:20 | 44.55604 | 5.61593 | 36026 ft | 398 kts | 200° |
| 2026-05-04 17:20 | 44.47614 | 5.58616 | 36024 ft | 396 kts | 200° |
| 2026-05-04 17:21 | 44.36953 | 5.54687 | 36017 ft | 396 kts | 200° |
| 2026-05-04 17:22 | 44.31628 | 5.52728 | 36016 ft | 396 kts | 200° |
| 2026-05-04 17:23 | 44.21021 | 5.48840 | 36011 ft | 395 kts | 200° |
| 2026-05-04 17:24 | 44.13046 | 5.45931 | 36012 ft | 395 kts | 200° |
| 2026-05-04 17:25 | 44.03270 | 5.42378 | 36007 ft | 395 kts | 200° |
| 2026-05-04 17:26 | 43.92862 | 5.37765 | 36014 ft | 391 kts | 206° |
| 2026-05-04 17:27 | 43.80207 | 5.30925 | 36018 ft | 390 kts | 206° |
| 2026-05-04 17:28 | 43.70035 | 5.25446 | 35998 ft | 400 kts | 206° |
| 2026-05-04 17:29 | 43.62124 | 5.21197 | 36002 ft | 417 kts | 206° |
| 2026-05-04 17:29 | 43.53921 | 5.16823 | 35997 ft | 423 kts | 206° |
| 2026-05-04 17:31 | 43.40635 | 5.08588 | 36001 ft | 416 kts | 216° |
| 2026-05-04 17:32 | 43.28489 | 4.97831 | 35991 ft | 404 kts | 216° |
| 2026-05-04 17:33 | 43.21693 | 4.91844 | 35998 ft | 380 kts | 216° |
| 2026-05-04 17:33 | 43.19473 | 4.89883 | 35999 ft | 379 kts | 216° |
| 2026-05-04 17:34 | 43.10609 | 4.82078 | 36001 ft | 378 kts | 216° |
| 2026-05-04 17:35 | 42.99357 | 4.72810 | 35991 ft | 379 kts | 212° |
| 2026-05-04 17:36 | 42.94718 | 4.69398 | 35997 ft | 378 kts | 212° |
| 2026-05-04 17:36 | 42.90109 | 4.65953 | 35997 ft | 378 kts | 213° |
| 2026-05-04 17:37 | 42.85545 | 4.62502 | 35992 ft | 377 kts | 213° |
| 2026-05-04 17:37 | 42.80937 | 4.59005 | 35996 ft | 376 kts | 213° |
| 2026-05-04 17:38 | 42.76388 | 4.55577 | 35987 ft | 376 kts | 213° |
| 2026-05-04 17:38 | 42.71813 | 4.52143 | 35973 ft | 376 kts | 213° |
| 2026-05-04 17:39 | 42.65258 | 4.46457 | 35282 ft | 371 kts | 230° |
| 2026-05-04 17:39 | 42.63628 | 4.43741 | 34983 ft | 371 kts | 232° |
| 2026-05-04 17:39 | 42.62050 | 4.40987 | 34945 ft | 365 kts | 232° |
| 2026-05-04 17:40 | 42.58943 | 4.35549 | 34952 ft | 370 kts | 232° |
| 2026-05-04 17:40 | 42.55745 | 4.29920 | 34952 ft | 383 kts | 232° |
| 2026-05-04 17:41 | 42.52444 | 4.24109 | 34952 ft | 393 kts | 232° |
| 2026-05-04 17:41 | 42.49104 | 4.18236 | 34954 ft | 394 kts | 232° |
| 2026-05-04 17:42 | 42.45768 | 4.12352 | 34940 ft | 393 kts | 232° |
| 2026-05-04 17:42 | 42.42444 | 4.06482 | 34943 ft | 393 kts | 232° |
| 2026-05-04 17:43 | 42.39109 | 4.00641 | 34936 ft | 392 kts | 229° |
| 2026-05-04 17:43 | 42.37058 | 3.98221 | 34931 ft | 395 kts | 214° |
| 2026-05-04 17:43 | 42.34525 | 3.96731 | 34927 ft | 404 kts | 199° |
| 2026-05-04 17:44 | 42.31696 | 3.96365 | 34926 ft | 416 kts | 185° |
| 2026-05-04 17:44 | 42.28806 | 3.96485 | 34920 ft | 413 kts | 188° |
| 2026-05-04 17:44 | 42.23107 | 3.96000 | 34908 ft | 409 kts | 192° |
| 2026-05-04 17:45 | 42.17431 | 3.95259 | 34912 ft | 411 kts | 192° |
| 2026-05-04 17:45 | 42.11718 | 3.94720 | 34914 ft | 412 kts | 190° |
| 2026-05-04 17:46 | 42.05984 | 3.94329 | 34917 ft | 413 kts | 189° |
| 2026-05-04 17:46 | 42.00230 | 3.93949 | 35202 ft | 415 kts | 190° |
| 2026-05-04 17:47 | 41.97337 | 3.93743 | 35383 ft | 416 kts | 190° |
| 2026-05-04 17:47 | 41.94455 | 3.93439 | 35519 ft | 414 kts | 195° |
| 2026-05-04 17:47 | 41.91677 | 3.92570 | 35666 ft | 408 kts | 204° |
| 2026-05-04 17:47 | 41.89075 | 3.91093 | 35842 ft | 404 kts | 210° |
| 2026-05-04 17:48 | 41.84098 | 3.87812 | 35927 ft | 385 kts | 211° |
| 2026-05-04 17:48 | 41.81741 | 3.86239 | 35925 ft | 374 kts | 211° |
| 2026-05-04 17:48 | 41.79430 | 3.84684 | 35925 ft | 370 kts | 211° |
| 2026-05-04 17:49 | 41.74850 | 3.81595 | 35924 ft | 368 kts | 211° |
| 2026-05-04 17:49 | 41.70279 | 3.78511 | 35924 ft | 368 kts | 211° |
| 2026-05-04 17:50 | 41.65696 | 3.75442 | 35925 ft | 369 kts | 211° |
| 2026-05-04 17:50 | 41.61134 | 3.72404 | 35924 ft | 369 kts | 211° |
| 2026-05-04 17:51 | 41.56543 | 3.69352 | 35928 ft | 369 kts | 211° |
| 2026-05-04 17:51 | 41.51951 | 3.66298 | 35929 ft | 369 kts | 211° |
| 2026-05-04 17:52 | 41.47364 | 3.63246 | 35924 ft | 369 kts | 211° |
| 2026-05-04 17:52 | 41.42763 | 3.60200 | 35925 ft | 369 kts | 211° |
| 2026-05-04 17:53 | 41.38163 | 3.57152 | 35922 ft | 369 kts | 211° |
| 2026-05-04 17:53 | 41.33567 | 3.54103 | 35920 ft | 369 kts | 211° |
| 2026-05-04 17:54 | 41.28969 | 3.51060 | 35921 ft | 370 kts | 211° |
| 2026-05-04 17:54 | 41.24358 | 3.48027 | 35920 ft | 370 kts | 211° |
| 2026-05-04 17:55 | 41.19734 | 3.45002 | 35923 ft | 371 kts | 208° |
| 2026-05-04 17:55 | 41.14693 | 3.43138 | 35925 ft | 380 kts | 198° |
| 2026-05-04 17:56 | 41.09511 | 3.41774 | 35923 ft | 380 kts | 198° |
| 2026-05-04 17:56 | 41.04313 | 3.40407 | 35897 ft | 382 kts | 198° |
| 2026-05-04 17:57 | 41.01702 | 3.39717 | 35630 ft | 382 kts | 197° |
| 2026-05-04 17:57 | 40.99094 | 3.39030 | 35165 ft | 383 kts | 197° |
| 2026-05-04 17:57 | 40.96484 | 3.38346 | 34505 ft | 378 kts | 197° |
| 2026-05-04 17:57 | 40.93935 | 3.37682 | 33855 ft | 369 kts | 197° |
| 2026-05-04 17:58 | 40.91441 | 3.37032 | 33205 ft | 362 kts | 197° |
| 2026-05-04 17:58 | 40.88982 | 3.36388 | 32559 ft | 360 kts | 197° |
| 2026-05-04 17:58 | 40.86543 | 3.35746 | 31900 ft | 355 kts | 198° |
| 2026-05-04 17:58 | 40.84141 | 3.35110 | 31248 ft | 350 kts | 198° |
| 2026-05-04 17:59 | 40.81764 | 3.34485 | 30588 ft | 346 kts | 198° |
| 2026-05-04 17:59 | 40.79415 | 3.33869 | 29944 ft | 343 kts | 198° |
| 2026-05-04 17:59 | 40.74749 | 3.32647 | 28640 ft | 338 kts | 198° |
| 2026-05-04 18:00 | 40.72451 | 3.32050 | 27984 ft | 335 kts | 197° |
| 2026-05-04 18:00 | 40.70172 | 3.31458 | 27332 ft | 333 kts | 197° |
| 2026-05-04 18:00 | 40.67938 | 3.30877 | 26680 ft | 330 kts | 197° |
| 2026-05-04 18:00 | 40.65693 | 3.30291 | 26031 ft | 328 kts | 197° |
| 2026-05-04 18:01 | 40.63430 | 3.29699 | 25367 ft | 328 kts | 197° |
| 2026-05-04 18:01 | 40.61209 | 3.29112 | 24735 ft | 331 kts | 197° |
| 2026-05-04 18:01 | 40.58938 | 3.28513 | 24083 ft | 334 kts | 197° |
| 2026-05-04 18:02 | 40.54385 | 3.27330 | 22773 ft | 329 kts | 196° |
| 2026-05-04 18:02 | 40.52154 | 3.26757 | 22112 ft | 322 kts | 196° |
| 2026-05-04 18:02 | 40.49975 | 3.26197 | 21463 ft | 317 kts | 197° |
| 2026-05-04 18:02 | 40.47824 | 3.25644 | 20883 ft | 312 kts | 197° |
| 2026-05-04 18:03 | 40.45724 | 3.24995 | 20956 ft | 311 kts | 206° |
| 2026-05-04 18:03 | 40.43883 | 3.23580 | 20972 ft | 305 kts | 221° |
| 2026-05-04 18:03 | 40.42240 | 3.21814 | 20971 ft | 305 kts | 222° |
| 2026-05-04 18:03 | 40.40605 | 3.20043 | 20971 ft | 305 kts | 222° |
| 2026-05-04 18:04 | 40.38972 | 3.18270 | 20972 ft | 305 kts | 222° |
| 2026-05-04 18:04 | 40.37334 | 3.16496 | 20971 ft | 305 kts | 222° |
| 2026-05-04 18:04 | 40.34070 | 3.12967 | 20971 ft | 305 kts | 222° |
| 2026-05-04 18:05 | 40.32426 | 3.11189 | 20971 ft | 306 kts | 222° |
| 2026-05-04 18:05 | 40.30784 | 3.09411 | 20970 ft | 306 kts | 222° |
| 2026-05-04 18:05 | 40.29145 | 3.07641 | 20972 ft | 306 kts | 222° |
| 2026-05-04 18:05 | 40.27503 | 3.05875 | 20970 ft | 306 kts | 222° |
| 2026-05-04 18:06 | 40.24215 | 3.02342 | 20971 ft | 305 kts | 222° |
| 2026-05-04 18:06 | 40.22555 | 3.00554 | 20969 ft | 305 kts | 222° |
| 2026-05-04 18:06 | 40.20913 | 2.98789 | 20973 ft | 306 kts | 222° |
| 2026-05-04 18:07 | 40.19289 | 2.97044 | 20972 ft | 306 kts | 222° |
| 2026-05-04 18:07 | 40.17645 | 2.95278 | 20970 ft | 306 kts | 222° |
| 2026-05-04 18:07 | 40.16001 | 2.93512 | 20972 ft | 306 kts | 222° |
| 2026-05-04 18:07 | 40.14356 | 2.91745 | 20970 ft | 306 kts | 222° |
| 2026-05-04 18:08 | 40.12711 | 2.89981 | 20970 ft | 306 kts | 222° |
| 2026-05-04 18:08 | 40.11064 | 2.88217 | 20971 ft | 306 kts | 222° |
| 2026-05-04 18:08 | 40.09414 | 2.86452 | 20971 ft | 306 kts | 222° |
| 2026-05-04 18:08 | 40.07764 | 2.84690 | 20971 ft | 306 kts | 222° |
| 2026-05-04 18:09 | 40.04468 | 2.81168 | 20972 ft | 306 kts | 222° |
| 2026-05-04 18:09 | 40.01164 | 2.77645 | 20971 ft | 307 kts | 222° |
| 2026-05-04 18:10 | 39.99517 | 2.75889 | 20971 ft | 306 kts | 222° |
| 2026-05-04 18:10 | 39.97871 | 2.74134 | 20971 ft | 305 kts | 222° |
| 2026-05-04 18:10 | 39.96230 | 2.72384 | 20971 ft | 304 kts | 222° |
| 2026-05-04 18:10 | 39.95123 | 2.71205 | 20970 ft | 304 kts | 222° |
| 2026-05-04 18:11 | 39.93506 | 2.69486 | 20971 ft | 304 kts | 222° |
| 2026-05-04 18:11 | 39.91848 | 2.67726 | 20971 ft | 304 kts | 222° |
| 2026-05-04 18:11 | 39.90233 | 2.66013 | 20970 ft | 303 kts | 222° |
| 2026-05-04 18:11 | 39.88596 | 2.64277 | 20971 ft | 303 kts | 222° |
| 2026-05-04 18:12 | 39.86960 | 2.62542 | 20972 ft | 304 kts | 222° |
| 2026-05-04 18:12 | 39.85321 | 2.60804 | 20972 ft | 303 kts | 222° |
| 2026-05-04 18:12 | 39.83663 | 2.59046 | 20971 ft | 303 kts | 222° |
| 2026-05-04 18:12 | 39.82051 | 2.57336 | 20971 ft | 303 kts | 222° |
| 2026-05-04 18:13 | 39.80416 | 2.55606 | 20971 ft | 303 kts | 222° |
| 2026-05-04 18:13 | 39.78778 | 2.53876 | 20971 ft | 303 kts | 222° |
| 2026-05-04 18:13 | 39.75503 | 2.50420 | 20971 ft | 303 kts | 222° |
| 2026-05-04 18:14 | 39.73865 | 2.48694 | 20970 ft | 303 kts | 222° |
| 2026-05-04 18:14 | 39.72228 | 2.46966 | 20970 ft | 303 kts | 222° |
| 2026-05-04 18:14 | 39.70592 | 2.45235 | 20971 ft | 303 kts | 222° |
| 2026-05-04 18:15 | 39.67320 | 2.41782 | 20970 ft | 303 kts | 222° |
| 2026-05-04 18:15 | 39.64043 | 2.38333 | 20971 ft | 303 kts | 222° |
| 2026-05-04 18:15 | 39.62405 | 2.36613 | 20971 ft | 303 kts | 222° |
| 2026-05-04 18:16 | 39.60765 | 2.34891 | 20971 ft | 303 kts | 222° |
| 2026-05-04 18:16 | 39.59131 | 2.33179 | 20757 ft | 300 kts | 222° |
| 2026-05-04 18:16 | 39.57517 | 2.31489 | 20195 ft | 296 kts | 222° |
| 2026-05-04 18:17 | 39.54331 | 2.28148 | 18991 ft | 295 kts | 222° |
| 2026-05-04 18:17 | 39.52731 | 2.26472 | 18631 ft | 296 kts | 222° |
| 2026-05-04 18:17 | 39.49534 | 2.23126 | 17935 ft | 295 kts | 222° |
| 2026-05-04 18:18 | 39.47940 | 2.21460 | 17579 ft | 294 kts | 222° |
| 2026-05-04 18:18 | 39.46352 | 2.19800 | 17206 ft | 293 kts | 222° |
| 2026-05-04 18:18 | 39.44770 | 2.18149 | 16833 ft | 291 kts | 222° |
| 2026-05-04 18:18 | 39.43194 | 2.16506 | 16453 ft | 290 kts | 222° |
| 2026-05-04 18:19 | 39.40064 | 2.13246 | 15705 ft | 288 kts | 221° |
| 2026-05-04 18:19 | 39.38504 | 2.11624 | 15332 ft | 287 kts | 221° |
| 2026-05-04 18:19 | 39.36958 | 2.10018 | 14950 ft | 282 kts | 221° |
| 2026-05-04 18:20 | 39.35427 | 2.08429 | 14579 ft | 282 kts | 221° |
| 2026-05-04 18:20 | 39.33901 | 2.06846 | 14202 ft | 281 kts | 221° |
| 2026-05-04 18:20 | 39.32378 | 2.05262 | 13808 ft | 281 kts | 221° |
| 2026-05-04 18:20 | 39.30859 | 2.03682 | 13446 ft | 280 kts | 221° |
| 2026-05-04 18:21 | 39.29344 | 2.02106 | 13069 ft | 279 kts | 221° |
| 2026-05-04 18:21 | 39.27835 | 2.00535 | 12699 ft | 278 kts | 221° |
| 2026-05-04 18:21 | 39.26334 | 1.98975 | 12322 ft | 276 kts | 221° |
| 2026-05-04 18:21 | 39.24863 | 1.97454 | 11943 ft | 268 kts | 221° |
| 2026-05-04 18:22 | 39.23412 | 1.95956 | 11565 ft | 266 kts | 221° |
| 2026-05-04 18:22 | 39.21968 | 1.94462 | 11184 ft | 266 kts | 221° |
| 2026-05-04 18:22 | 39.20525 | 1.92969 | 10810 ft | 265 kts | 221° |
| 2026-05-04 18:22 | 39.19082 | 1.91481 | 10442 ft | 266 kts | 221° |
| 2026-05-04 18:23 | 39.17640 | 1.89994 | 10070 ft | 265 kts | 221° |
| 2026-05-04 18:23 | 39.16203 | 1.88509 | 9687 ft | 265 kts | 221° |
| 2026-05-04 18:23 | 39.14766 | 1.87024 | 9308 ft | 265 kts | 221° |
| 2026-05-04 18:23 | 39.13331 | 1.85542 | 8931 ft | 264 kts | 220° |
| 2026-05-04 18:24 | 39.11893 | 1.84064 | 8540 ft | 264 kts | 220° |
| 2026-05-04 18:24 | 39.10462 | 1.82591 | 8175 ft | 264 kts | 220° |
| 2026-05-04 18:24 | 39.09033 | 1.81119 | 7806 ft | 262 kts | 220° |
| 2026-05-04 18:24 | 39.07638 | 1.79685 | 7368 ft | 261 kts | 220° |
| 2026-05-04 18:25 | 39.06211 | 1.78218 | 6929 ft | 258 kts | 219° |
| 2026-05-04 18:25 | 39.04861 | 1.76830 | 6764 ft | 240 kts | 219° |
| 2026-05-04 18:25 | 39.03573 | 1.75506 | 6652 ft | 228 kts | 220° |
| 2026-05-04 18:25 | 39.02516 | 1.74068 | 6517 ft | 225 kts | 236° |
| 2026-05-04 18:26 | 39.01754 | 1.72296 | 6154 ft | 227 kts | 240° |
| 2026-05-04 18:26 | 39.01020 | 1.70518 | 5802 ft | 223 kts | 240° |
| 2026-05-04 18:26 | 39.00301 | 1.68780 | 5484 ft | 215 kts | 240° |
| 2026-05-04 18:26 | 38.99610 | 1.67117 | 5185 ft | 207 kts | 240° |
| 2026-05-04 18:27 | 38.98941 | 1.65512 | 4876 ft | 201 kts | 240° |
| 2026-05-04 18:27 | 38.98297 | 1.63964 | 4606 ft | 191 kts | 240° |
| 2026-05-04 18:27 | 38.97690 | 1.62507 | 4323 ft | 179 kts | 240° |
| 2026-05-04 18:27 | 38.97129 | 1.61159 | 4077 ft | 165 kts | 240° |
| 2026-05-04 18:28 | 38.96608 | 1.59909 | 3836 ft | 153 kts | 240° |
| 2026-05-04 18:28 | 38.96130 | 1.58756 | 3620 ft | 141 kts | 240° |
| 2026-05-04 18:28 | 38.95679 | 1.57662 | 3412 ft | 138 kts | 240° |
| 2026-05-04 18:28 | 38.95231 | 1.56578 | 3141 ft | 137 kts | 240° |
| 2026-05-04 18:29 | 38.94785 | 1.55497 | 2923 ft | 137 kts | 241° |
| 2026-05-04 18:29 | 38.94338 | 1.54410 | 2732 ft | 137 kts | 241° |
| 2026-05-04 18:29 | 38.93892 | 1.53327 | 2530 ft | 137 kts | 241° |
| 2026-05-04 18:29 | 38.93447 | 1.52247 | 2354 ft | 136 kts | 241° |
| 2026-05-04 18:30 | 38.92565 | 1.50105 | 1992 ft | 135 kts | 241° |
| 2026-05-04 18:30 | 38.92123 | 1.49035 | 1803 ft | 136 kts | 242° |
| 2026-05-04 18:30 | 38.91684 | 1.47969 | 1630 ft | 134 kts | 241° |
| 2026-05-04 18:31 | 38.91248 | 1.46910 | 1455 ft | 134 kts | 242° |
| 2026-05-04 18:31 | 38.90827 | 1.45848 | 1308 ft | 133 kts | 242° |
| 2026-05-04 18:31 | 38.90392 | 1.44804 | 1134 ft | 132 kts | 241° |
| 2026-05-04 18:31 | 38.89953 | 1.43766 | 945 ft | 133 kts | 240° |
| 2026-05-04 18:32 | 38.89514 | 1.42726 | 734 ft | 132 kts | 241° |
| 2026-05-04 18:32 | 38.89086 | 1.41684 | 560 ft | 132 kts | 241° |
| 2026-05-04 18:32 | 38.88655 | 1.40641 | 397 ft | 133 kts | 242° |
| 2026-05-04 18:32 | 38.88227 | 1.39596 | 225 ft | 132 kts | 241° |
| 2026-05-04 18:33 | 38.87794 | 1.38553 | 48 ft | 132 kts | 242° |
| 2026-05-04 18:33 | 38.87399 | 1.37590 | 9 ft | 108 kts | 242° |
| 2026-05-04 18:33 | 38.87145 | 1.36973 | 11 ft | 44 kts | 242° |
| 2026-05-04 18:33 | 38.87100 | 1.36686 | 8 ft | 16 kts | 271° |
| 2026-05-04 18:34 | 38.87102 | 1.36648 | 8 ft | 0 kts | 275° |
| 2026-05-04 18:34 | 38.87108 | 1.36590 | 8 ft | 10 kts | 285° |
| 2026-05-04 18:34 | 38.87116 | 1.36571 | 8 ft | 0 kts | 307° |
| 2026-05-04 18:35 | 38.87117 | 1.36570 | 8 ft | 0 kts | 308° |
| 2026-05-04 18:35 | 38.87129 | 1.36561 | 8 ft | 12 kts | 336° |
| 2026-05-04 18:35 | 38.87204 | 1.36663 | 10 ft | 17 kts | 60° |
| 2026-05-04 18:36 | 38.87259 | 1.36795 | 9 ft | 16 kts | 62° |
| 2026-05-04 18:36 | 38.87319 | 1.36850 | 9 ft | 11 kts | 347° |
| 2026-05-04 18:36 | 38.87381 | 1.36812 | 9 ft | 9 kts | 333° |
| 2026-05-04 18:36 | 38.87437 | 1.36805 | 8 ft | 7 kts | 34° |
| 2026-05-04 18:37 | 38.87477 | 1.36896 | 10 ft | 17 kts | 62° |
| 2026-05-04 18:37 | 38.87530 | 1.37016 | 9 ft | 10 kts | 40° |
| 2026-05-04 18:37 | 38.87579 | 1.37001 | 8 ft | 2 kts | 332° |
| 2026-05-04 18:37 | 38.87591 | 1.36992 | 8 ft | 2 kts | 332° |
| 2026-05-04 18:38 | 38.87593 | 1.36991 | 10 ft | 0 kts | 332° |